createdAt,value
2023-02-11T00:01:37.279Z,16.30
2023-02-11T00:04:08.267Z,15.10
2023-02-11T00:06:37.824Z,16.67
2023-02-11T00:09:07.017Z,17.60
2023-02-11T00:11:35.639Z,16.13
2023-02-11T00:14:07.842Z,14.10
2023-02-11T00:16:36.448Z,14.83
2023-02-11T00:19:07.484Z,15.67
2023-02-11T00:21:36.345Z,15.50
2023-02-11T00:24:05.341Z,15.23
2023-02-11T00:26:36.628Z,15.30
2023-02-11T00:29:06.927Z,14.47
2023-02-11T00:31:35.840Z,15.03
2023-02-11T00:34:04.594Z,16.10
2023-02-11T00:36:34.910Z,15.63
2023-02-11T00:39:03.390Z,14.17
2023-02-11T00:41:32.584Z,17.63
2023-02-11T00:44:01.257Z,13.87
2023-02-11T00:46:30.014Z,15.50
2023-02-11T00:48:58.668Z,14.60
2023-02-11T00:51:28.694Z,15.20
2023-02-11T00:53:58.774Z,14.07
2023-02-11T00:56:27.661Z,13.50
2023-02-11T00:58:56.145Z,16.90
2023-02-11T01:01:25.256Z,18.77
2023-02-11T01:03:53.672Z,16.03
2023-02-11T01:06:22.341Z,15.87
2023-02-11T01:08:50.864Z,15.13
2023-02-11T01:11:22.132Z,16.03
2023-02-11T01:13:52.181Z,15.80
2023-02-11T01:16:22.357Z,15.30
2023-02-11T01:18:51.061Z,18.27
2023-02-11T01:21:19.544Z,16.13
2023-02-11T01:23:48.480Z,18.00
2023-02-11T01:26:17.112Z,14.97
2023-02-11T01:28:47.023Z,16.67
2023-02-11T01:31:16.099Z,15.03
2023-02-11T01:33:44.823Z,16.33
2023-02-11T01:36:13.925Z,17.03
2023-02-11T01:38:44.507Z,17.93
2023-02-11T01:41:15.778Z,18.23
2023-02-11T01:43:49.523Z,16.87
2023-02-11T01:46:35.446Z,19.00
2023-02-11T01:49:10.502Z,35.73
2023-02-11T01:51:44.845Z,19.67
2023-02-11T01:54:35.767Z,18.97
2023-02-11T01:57:25.147Z,20.27
2023-02-11T02:00:06.881Z,18.67
2023-02-11T02:02:47.779Z,18.60
2023-02-11T02:05:32.539Z,18.37
2023-02-11T02:08:10.961Z,19.43
2023-02-11T02:10:44.570Z,19.17
2023-02-11T02:13:14.274Z,17.83
2023-02-11T02:15:51.947Z,18.97
2023-02-11T02:18:43.364Z,17.60
2023-02-11T02:21:53.743Z,20.30
2023-02-11T02:24:56.433Z,16.17
2023-02-11T02:27:43.350Z,17.43
2023-02-11T02:31:16.861Z,16.73
2023-02-11T02:33:57.029Z,15.93
2023-02-11T02:36:35.522Z,15.83
2023-02-11T02:39:10.346Z,17.27
2023-02-11T02:41:40.664Z,17.77
2023-02-11T02:44:10.137Z,18.57
2023-02-11T02:46:38.927Z,18.90
2023-02-11T02:49:15.308Z,18.60
2023-02-11T02:52:32.961Z,17.23
2023-02-11T02:55:43.840Z,16.10
2023-02-11T02:59:11.798Z,18.53
2023-02-11T03:01:51.498Z,17.37
2023-02-11T03:04:30.405Z,17.70
2023-02-11T03:07:08.946Z,17.87
2023-02-11T03:09:45.167Z,17.57
2023-02-11T03:12:15.297Z,17.20
2023-02-11T03:14:44.616Z,18.30
2023-02-11T03:17:15.535Z,16.93
2023-02-11T03:19:48.404Z,19.43
2023-02-11T03:22:23.247Z,19.13
2023-02-11T03:24:52.064Z,18.43
2023-02-11T03:27:28.017Z,19.50
2023-02-11T03:30:06.827Z,18.83
2023-02-11T03:32:41.314Z,17.63
2023-02-11T03:35:17.801Z,17.40
2023-02-11T03:37:53.410Z,17.97
2023-02-11T03:40:25.941Z,19.53
2023-02-11T03:43:00.828Z,18.83
2023-02-11T03:45:29.880Z,17.37
2023-02-11T03:48:04.184Z,18.00
2023-02-11T03:50:37.422Z,18.37
2023-02-11T03:53:07.088Z,17.77
2023-02-11T03:55:41.161Z,20.37
2023-02-11T03:58:10.529Z,18.70
2023-02-11T04:00:42.590Z,21.27
2023-02-11T04:03:12.338Z,21.10
2023-02-11T04:05:42.390Z,17.83
2023-02-11T04:08:10.974Z,19.37
2023-02-11T04:10:39.430Z,18.73
2023-02-11T04:13:07.868Z,21.00
2023-02-11T04:15:36.377Z,19.17
2023-02-11T04:18:05.298Z,21.10
2023-02-11T04:20:33.737Z,21.07
2023-02-11T04:23:03.606Z,20.73
2023-02-11T04:25:32.205Z,21.40
2023-02-11T04:28:00.694Z,18.77
2023-02-11T04:30:29.318Z,20.80
2023-02-11T04:32:59.020Z,18.47
2023-02-11T04:35:27.586Z,19.83
2023-02-11T04:37:55.998Z,19.73
2023-02-11T04:40:25.865Z,21.20
2023-02-11T04:42:54.414Z,21.47
2023-02-11T04:45:22.990Z,21.70
2023-02-11T04:47:51.478Z,19.93
2023-02-11T04:50:20.157Z,22.07
2023-02-11T04:52:48.584Z,20.83
2023-02-11T04:55:18.111Z,21.23
2023-02-11T04:57:48.019Z,19.30
2023-02-11T05:00:18.032Z,20.50
2023-02-11T05:02:46.557Z,20.00
2023-02-11T05:05:15.025Z,19.40
2023-02-11T05:07:43.451Z,20.93
2023-02-11T05:10:12.059Z,19.53
2023-02-11T05:12:40.525Z,20.20
2023-02-11T05:15:11.095Z,20.30
2023-02-11T05:17:39.493Z,21.87
2023-02-11T05:20:09.372Z,19.70
2023-02-11T05:22:37.773Z,19.43
2023-02-11T05:25:07.361Z,18.87
2023-02-11T05:27:35.823Z,20.47
2023-02-11T05:30:04.322Z,21.50
2023-02-11T05:32:34.158Z,18.75
2023-02-11T05:35:02.711Z,19.50
2023-02-11T05:37:31.182Z,18.47
2023-02-11T05:39:59.682Z,19.33
2023-02-11T05:42:28.233Z,18.77
2023-02-11T05:44:56.650Z,19.80
2023-02-11T05:47:25.102Z,17.87
2023-02-11T05:49:55.306Z,17.93
2023-02-11T05:52:24.531Z,18.83
2023-02-11T05:54:53.043Z,17.47
2023-02-11T05:57:21.638Z,17.10
2023-02-11T05:59:50.055Z,18.43
2023-02-11T06:02:18.494Z,16.80
2023-02-11T06:04:47.193Z,18.83
2023-02-11T06:07:17.515Z,20.17
2023-02-11T06:09:46.228Z,17.70
2023-02-11T06:12:14.831Z,17.93
2023-02-11T06:14:43.508Z,19.50
2023-02-11T06:17:13.973Z,18.67
2023-02-11T06:19:43.768Z,18.83
2023-02-11T06:22:12.305Z,18.20
2023-02-11T06:25:00.455Z,17.40
2023-02-11T06:27:30.114Z,17.50
2023-02-11T06:29:58.603Z,19.53
2023-02-11T06:32:43.981Z,18.80
2023-02-11T06:35:14.585Z,17.97
2023-02-11T06:37:43.932Z,16.63
2023-02-11T06:40:14.535Z,18.00
2023-02-11T06:42:43.047Z,17.63
2023-02-11T06:45:13.353Z,17.23
2023-02-11T06:47:42.996Z,18.20
2023-02-11T06:50:15.666Z,18.83
2023-02-11T06:52:44.074Z,18.53
2023-02-11T06:55:13.962Z,14.83
2023-02-11T06:57:42.574Z,20.30
2023-02-11T07:00:13.019Z,17.10
2023-02-11T07:02:41.480Z,17.95
2023-02-11T07:05:11.102Z,19.27
2023-02-11T07:07:39.675Z,19.17
2023-02-11T07:10:09.454Z,18.48
2023-02-11T07:12:39.325Z,19.80
2023-02-11T07:15:09.056Z,18.42
2023-02-11T07:17:37.802Z,17.30
2023-02-11T07:20:07.517Z,17.17
2023-02-11T07:22:35.963Z,17.73
2023-02-11T07:25:04.636Z,18.00
2023-02-11T07:27:33.196Z,17.17
2023-02-11T07:30:04.929Z,17.60
2023-02-11T07:32:35.341Z,18.63
2023-02-11T07:35:04.051Z,20.77
2023-02-11T07:37:34.262Z,18.35
2023-02-11T07:40:02.800Z,16.45
2023-02-11T07:42:31.231Z,16.30
2023-02-11T07:44:59.628Z,17.92
2023-02-11T07:47:29.426Z,17.42
2023-02-11T07:49:57.925Z,16.48
2023-02-11T07:52:26.322Z,18.55
2023-02-11T07:54:54.730Z,17.42
2023-02-11T07:57:23.113Z,16.20
2023-02-11T07:59:51.548Z,15.57
2023-02-11T08:02:20.047Z,16.77
2023-02-11T08:04:50.825Z,16.25
2023-02-11T08:07:20.250Z,18.55
2023-02-11T08:09:48.779Z,16.88
2023-02-11T08:12:17.199Z,16.20
2023-02-11T08:14:45.599Z,18.88
2023-02-11T08:17:14.014Z,15.85
2023-02-11T08:19:42.437Z,17.50
2023-02-11T08:22:12.598Z,18.05
2023-02-11T08:24:41.007Z,16.10
2023-02-11T08:27:09.404Z,14.90
2023-02-11T08:29:37.816Z,14.90
2023-02-11T08:32:06.328Z,15.35
2023-02-11T08:34:34.761Z,15.00
2023-02-11T08:37:03.159Z,14.63
2023-02-11T08:39:32.909Z,15.18
2023-02-11T08:42:01.265Z,16.80
2023-02-11T08:44:30.052Z,14.07
2023-02-11T08:46:58.464Z,13.90
2023-02-11T08:49:26.891Z,16.30
2023-02-11T08:51:56.278Z,14.55
2023-02-11T08:54:24.697Z,15.70
2023-02-11T08:56:54.629Z,15.60
2023-02-11T08:59:23.356Z,14.35
2023-02-11T09:01:52.085Z,16.52
2023-02-11T09:04:21.142Z,13.65
2023-02-11T09:06:49.564Z,15.98
2023-02-11T09:09:18.743Z,14.57
2023-02-11T09:11:48.213Z,14.77
2023-02-11T09:14:22.990Z,14.75
2023-02-11T09:16:53.248Z,16.40
2023-02-11T09:19:23.093Z,18.02
2023-02-11T09:21:51.686Z,15.00
2023-02-11T09:24:20.247Z,17.65
2023-02-11T09:26:49.599Z,16.25
2023-02-11T09:29:19.390Z,15.68
2023-02-11T09:31:47.997Z,17.40
2023-02-11T09:34:16.579Z,16.70
2023-02-11T09:36:45.038Z,14.80
2023-02-11T09:39:17.046Z,16.15
2023-02-11T09:42:38.075Z,15.27
2023-02-11T09:45:18.526Z,13.85
2023-02-11T09:47:59.827Z,15.40
2023-02-11T09:50:33.893Z,16.23
2023-02-11T09:53:05.851Z,13.52
2023-02-11T09:55:39.493Z,14.48
2023-02-11T09:58:15.048Z,17.00
2023-02-11T10:00:52.679Z,14.57
2023-02-11T10:03:50.959Z,14.65
2023-02-11T10:06:43.302Z,12.70
2023-02-11T10:09:48.852Z,12.82
2023-02-11T10:12:35.095Z,13.88
2023-02-11T10:15:19.163Z,13.18
2023-02-11T10:18:02.847Z,12.93
2023-02-11T10:20:37.807Z,16.38
2023-02-11T10:23:16.760Z,14.20
2023-02-11T10:25:47.968Z,12.70
2023-02-11T10:28:19.032Z,14.63
2023-02-11T10:30:57.505Z,14.70
2023-02-11T10:33:32.695Z,14.45
2023-02-11T10:36:01.546Z,12.82
2023-02-11T10:38:30.137Z,13.38
2023-02-11T10:40:58.535Z,14.20
2023-02-11T10:43:31.950Z,13.10
2023-02-11T10:46:03.643Z,14.80
2023-02-11T10:48:44.177Z,13.55
2023-02-11T10:51:22.486Z,16.23
2023-02-11T10:54:13.898Z,13.75
2023-02-11T10:56:50.044Z,12.10
2023-02-11T10:59:28.431Z,13.52
2023-02-11T11:02:01.334Z,14.02
2023-02-11T11:04:46.079Z,14.50
2023-02-11T11:07:20.584Z,11.95
2023-02-11T11:09:56.765Z,12.57
2023-02-11T11:12:35.186Z,14.02
2023-02-11T11:15:18.824Z,13.35
2023-02-11T11:17:47.666Z,13.68
2023-02-11T11:20:32.379Z,13.25
2023-02-11T11:23:17.342Z,12.55
2023-02-11T11:25:59.225Z,12.65
2023-02-11T11:28:31.121Z,13.07
2023-02-11T11:31:01.886Z,13.60
2023-02-11T11:33:33.400Z,12.07
2023-02-11T11:36:09.017Z,12.60
2023-02-11T11:38:44.668Z,12.27
2023-02-11T11:41:25.935Z,11.60
2023-02-11T11:44:04.280Z,10.10
2023-02-11T11:46:36.514Z,11.15
2023-02-11T11:49:27.734Z,10.48
2023-02-11T11:52:11.318Z,10.48
2023-02-11T11:54:42.982Z,11.25
2023-02-11T11:57:17.915Z,9.82
2023-02-11T11:59:47.151Z,11.55
2023-02-11T12:03:00.912Z,9.00
2023-02-11T12:05:39.265Z,10.32
2023-02-11T12:08:24.882Z,9.57
2023-02-11T12:11:10.592Z,11.13
2023-02-11T12:13:50.288Z,10.10
2023-02-11T12:16:32.153Z,10.32
2023-02-11T12:19:48.002Z,10.05
2023-02-11T12:22:31.992Z,10.65
2023-02-11T12:25:23.606Z,8.48
2023-02-11T12:28:05.131Z,7.25
2023-02-11T12:31:07.842Z,8.95
2023-02-11T12:34:05.707Z,9.65
2023-02-11T12:37:02.941Z,10.57
2023-02-11T12:39:44.515Z,10.27
2023-02-11T12:43:03.355Z,10.32
2023-02-11T12:46:25.860Z,11.77
2023-02-11T12:49:33.176Z,9.65
2023-02-11T12:52:36.928Z,10.75
2023-02-11T12:55:17.394Z,11.07
2023-02-11T12:57:50.395Z,12.05
2023-02-11T13:00:24.822Z,10.63
2023-02-11T13:03:05.275Z,12.10
2023-02-11T13:05:42.551Z,11.40
2023-02-11T13:08:16.766Z,10.75
2023-02-11T13:10:52.366Z,12.60
2023-02-11T13:13:26.888Z,11.45
2023-02-11T13:16:00.302Z,11.98
2023-02-11T13:18:51.058Z,14.25
2023-02-11T13:21:46.651Z,12.43
2023-02-11T13:24:28.136Z,12.30
2023-02-11T13:27:16.415Z,12.60
2023-02-11T13:30:31.840Z,12.88
2023-02-11T13:33:21.783Z,13.65
2023-02-11T13:36:17.005Z,13.70
2023-02-11T13:39:03.063Z,12.98
2023-02-11T13:41:40.653Z,13.57
2023-02-11T13:44:26.017Z,14.75
2023-02-11T13:47:04.748Z,13.20
2023-02-11T13:49:40.660Z,13.98
2023-02-11T13:52:26.563Z,13.50
2023-02-11T13:54:58.201Z,13.13
2023-02-11T13:57:40.859Z,13.50
2023-02-11T14:00:52.295Z,12.10
2023-02-11T14:03:48.611Z,13.25
2023-02-11T14:07:02.522Z,12.00
2023-02-11T14:09:57.715Z,13.18
2023-02-11T14:12:37.352Z,11.27
2023-02-11T14:15:28.389Z,13.65
2023-02-11T14:17:57.218Z,14.52
2023-02-11T14:20:51.351Z,12.55
2023-02-11T14:23:28.489Z,12.13
2023-02-11T14:26:40.129Z,11.85
2023-02-11T14:29:19.977Z,13.35
2023-02-11T14:32:01.044Z,9.93
2023-02-11T14:34:54.172Z,11.35
2023-02-11T14:37:40.344Z,11.80
2023-02-11T14:40:26.879Z,10.98
2023-02-11T14:43:02.801Z,10.23
2023-02-11T14:45:32.626Z,11.52
2023-02-11T14:48:08.792Z,12.38
2023-02-11T14:50:46.580Z,12.80
2023-02-11T14:53:24.368Z,12.00
2023-02-11T14:55:55.993Z,12.25
2023-02-11T14:58:28.246Z,9.88
2023-02-11T15:01:00.993Z,10.45
2023-02-11T15:03:35.245Z,10.68
2023-02-11T15:06:09.659Z,9.77
2023-02-11T15:08:45.878Z,10.15
2023-02-11T15:11:19.565Z,10.05
2023-02-11T15:13:55.557Z,9.57
2023-02-11T15:16:29.087Z,10.00
2023-02-11T15:19:04.086Z,9.13
2023-02-11T15:21:38.257Z,8.55
2023-02-11T15:24:25.765Z,9.95
2023-02-11T15:27:04.290Z,10.15
2023-02-11T15:29:39.918Z,8.63
2023-02-11T15:32:17.131Z,10.10
2023-02-11T15:34:48.671Z,8.95
2023-02-11T15:37:23.670Z,10.13
2023-02-11T15:39:57.213Z,9.45
2023-02-11T15:42:40.988Z,9.23
2023-02-11T15:45:29.324Z,8.38
2023-02-11T15:48:09.618Z,8.05
2023-02-11T15:50:41.373Z,8.63
2023-02-11T15:53:28.251Z,9.60
2023-02-11T15:56:06.619Z,9.75
2023-02-11T15:58:44.650Z,9.60
2023-02-11T16:01:15.421Z,10.05
2023-02-11T16:03:51.594Z,9.20
2023-02-11T16:06:24.867Z,9.27
2023-02-11T16:09:04.535Z,9.00
2023-02-11T16:11:37.524Z,9.98
2023-02-11T16:14:25.205Z,9.45
2023-02-11T16:16:57.943Z,9.25
2023-02-11T16:19:30.983Z,8.35
2023-02-11T16:22:09.022Z,8.52
2023-02-11T16:24:44.534Z,9.18
2023-02-11T16:27:26.221Z,10.15
2023-02-11T16:29:56.398Z,10.48
2023-02-11T16:32:29.674Z,9.35
2023-02-11T16:35:02.549Z,11.13
2023-02-11T16:37:32.838Z,11.43
2023-02-11T16:40:02.511Z,9.95
2023-02-11T16:42:33.728Z,10.50
2023-02-11T16:45:03.844Z,10.02
2023-02-11T16:47:33.992Z,10.55
2023-02-11T16:50:10.118Z,11.00
2023-02-11T16:52:41.369Z,11.13
2023-02-11T16:55:12.141Z,12.35
2023-02-11T16:57:43.903Z,12.02
2023-02-11T17:00:17.323Z,11.10
2023-02-11T17:02:48.045Z,11.23
2023-02-11T17:05:23.637Z,13.80
2023-02-11T17:07:53.210Z,11.63
2023-02-11T17:10:25.164Z,11.13
2023-02-11T17:12:56.102Z,10.55
2023-02-11T17:15:26.585Z,11.80
2023-02-11T17:17:59.481Z,10.55
2023-02-11T17:20:34.747Z,11.05
2023-02-11T17:23:04.924Z,11.40
2023-02-11T17:25:34.691Z,12.52
2023-02-11T17:28:06.805Z,12.63
2023-02-11T17:30:36.639Z,10.63
2023-02-11T17:33:07.190Z,11.80
2023-02-11T17:35:40.971Z,11.57
2023-02-11T17:38:11.275Z,11.43
2023-02-11T17:40:41.442Z,11.43
2023-02-11T17:43:16.151Z,12.18
2023-02-11T17:45:47.304Z,13.05
2023-02-11T17:48:19.244Z,13.10
2023-02-11T17:50:49.648Z,11.90
2023-02-11T17:53:19.774Z,9.98
2023-02-11T17:55:50.336Z,11.13
2023-02-11T17:58:22.637Z,12.25
2023-02-11T18:00:52.996Z,11.35
2023-02-11T18:03:23.136Z,12.20
2023-02-11T18:05:53.612Z,11.27
2023-02-11T18:08:29.801Z,10.43
2023-02-11T18:11:02.622Z,14.45
2023-02-11T18:13:34.904Z,12.95
2023-02-11T18:16:06.707Z,11.65
2023-02-11T18:18:36.915Z,11.95
2023-02-11T18:21:09.584Z,9.90
2023-02-11T18:23:39.762Z,11.52
2023-02-11T18:26:11.052Z,13.82
2023-02-11T18:28:45.842Z,12.20
2023-02-11T18:31:18.578Z,12.13
2023-02-11T18:33:50.088Z,10.68
2023-02-11T18:36:21.248Z,12.43
2023-02-11T18:38:53.047Z,13.07
2023-02-11T18:41:23.481Z,12.70
2023-02-11T18:43:54.738Z,12.50
2023-02-11T18:46:24.744Z,12.13
2023-02-11T18:48:56.056Z,11.75
2023-02-11T18:51:28.934Z,12.43
2023-02-11T18:54:01.854Z,13.48
2023-02-11T18:56:32.101Z,11.68
2023-02-11T18:59:06.031Z,12.10
2023-02-11T19:01:36.359Z,11.65
2023-02-11T19:04:08.220Z,13.13
2023-02-11T19:06:40.032Z,12.30
2023-02-11T19:09:13.864Z,13.57
2023-02-11T19:11:50.807Z,11.10
2023-02-11T19:14:26.987Z,13.77
2023-02-11T19:16:59.818Z,12.77
2023-02-11T19:19:32.396Z,12.18
2023-02-11T19:22:03.752Z,13.73
2023-02-11T19:24:34.603Z,12.77
2023-02-11T19:27:08.283Z,12.38
2023-02-11T19:29:43.443Z,11.45
2023-02-11T19:32:14.241Z,12.57
2023-02-11T19:34:48.408Z,12.30
2023-02-11T19:37:18.702Z,12.23
2023-02-11T19:39:51.539Z,12.30
2023-02-11T19:42:21.922Z,13.55
2023-02-11T19:45:10.099Z,12.60
2023-02-11T19:47:41.744Z,14.10
2023-02-11T19:50:12.894Z,15.27
2023-02-11T19:52:43.563Z,14.02
2023-02-11T19:55:14.179Z,13.57
2023-02-11T19:57:44.991Z,12.88
2023-02-11T20:00:21.384Z,12.48
2023-02-11T20:02:50.998Z,12.85
2023-02-11T20:05:24.082Z,13.30
2023-02-11T20:07:54.572Z,13.30
2023-02-11T20:10:25.823Z,12.68
2023-02-11T20:12:57.593Z,13.48
2023-02-11T20:15:30.424Z,13.73
2023-02-11T20:18:01.111Z,14.15
2023-02-11T20:20:31.705Z,12.40
2023-02-11T20:23:02.338Z,12.93
2023-02-11T20:25:31.337Z,11.75
2023-02-11T20:28:01.894Z,12.88
2023-02-11T20:30:34.143Z,13.20
2023-02-11T20:33:05.071Z,13.55
2023-02-11T20:35:35.174Z,16.02
2023-02-11T20:38:05.756Z,11.95
2023-02-11T20:40:36.297Z,12.48
2023-02-11T20:43:06.829Z,12.70
2023-02-11T20:45:41.498Z,12.35
2023-02-11T20:48:13.424Z,13.25
2023-02-11T20:50:46.592Z,12.85
2023-02-11T20:53:20.305Z,12.48
2023-02-11T20:55:51.212Z,13.68
2023-02-11T20:58:20.949Z,12.70
2023-02-11T21:00:52.931Z,14.07
2023-02-11T21:03:23.461Z,14.35
2023-02-11T21:05:54.799Z,14.30
2023-02-11T21:08:24.715Z,13.52
2023-02-11T21:10:54.296Z,12.55
2023-02-11T21:13:27.958Z,12.60
2023-02-11T21:15:59.363Z,13.50
2023-02-11T21:18:33.461Z,13.90
2023-02-11T21:21:06.070Z,11.90
2023-02-11T21:23:40.298Z,12.73
2023-02-11T21:26:10.921Z,13.45
2023-02-11T21:28:42.873Z,12.25
2023-02-11T21:31:23.693Z,12.38
2023-02-11T21:33:55.560Z,15.05
2023-02-11T21:36:25.887Z,15.63
2023-02-11T21:38:55.214Z,14.88
2023-02-11T21:41:27.422Z,14.15
2023-02-11T21:43:57.565Z,13.45
2023-02-11T21:46:29.333Z,13.82
2023-02-11T21:49:00.571Z,14.93
2023-02-11T21:51:30.710Z,14.82
2023-02-11T21:54:02.945Z,14.60
2023-02-11T21:56:35.685Z,14.10
2023-02-11T21:59:05.415Z,14.25
2023-02-11T22:01:39.513Z,12.38
2023-02-11T22:04:08.407Z,13.85
2023-02-11T22:06:36.870Z,13.73
2023-02-11T22:09:08.806Z,15.40
2023-02-11T22:11:38.140Z,15.25
2023-02-11T22:14:08.082Z,14.27
2023-02-11T22:16:38.415Z,14.75
2023-02-11T22:19:07.596Z,13.88
2023-02-11T22:21:36.324Z,14.00
2023-02-11T22:24:05.882Z,13.75
2023-02-11T22:26:34.680Z,14.95
2023-02-11T22:29:03.264Z,13.98
2023-02-11T22:31:34.922Z,13.02
2023-02-11T22:34:06.160Z,14.10
2023-02-11T22:36:37.285Z,15.75
2023-02-11T22:39:08.766Z,14.27
2023-02-11T22:41:38.392Z,15.88
2023-02-11T22:44:06.891Z,14.13
2023-02-11T22:46:36.537Z,15.50
2023-02-11T22:49:07.218Z,14.90
2023-02-11T22:51:36.252Z,15.57
2023-02-11T22:54:07.311Z,15.70
2023-02-11T22:56:36.734Z,14.80
2023-02-11T22:59:07.882Z,15.13
2023-02-11T23:01:36.862Z,14.38
2023-02-11T23:04:09.530Z,14.70
2023-02-11T23:06:38.211Z,13.75
2023-02-11T23:09:08.231Z,13.63
2023-02-11T23:11:37.225Z,14.57
2023-02-11T23:14:05.870Z,13.27
2023-02-11T23:16:35.875Z,13.98
2023-02-11T23:19:08.575Z,14.63
2023-02-11T23:21:40.300Z,14.38
2023-02-11T23:24:14.270Z,13.43
2023-02-11T23:26:44.847Z,12.27
2023-02-11T23:29:13.993Z,12.18
2023-02-11T23:31:46.083Z,14.35
2023-02-11T23:34:20.424Z,13.95
2023-02-11T23:36:48.832Z,15.15
2023-02-11T23:39:17.979Z,13.00
2023-02-11T23:41:47.848Z,13.00
2023-02-11T23:44:16.422Z,14.88
2023-02-11T23:46:44.905Z,14.07
2023-02-11T23:49:15.620Z,14.65
2023-02-11T23:51:45.504Z,13.70
2023-02-11T23:54:15.930Z,13.48
2023-02-11T23:56:44.588Z,14.00
2023-02-11T23:59:13.197Z,14.82
